Accueil
METAR-TAF:

METAR-TAF

Aéroports :

Milan, Italie

Aéroport de Milan-Linate

latitude: 45-26N, longitude: 009-17E, altitude: 107 m

Observation

Le bulletin a été fait il y a 12 minutes, à 04:50 UTC
Vent 1 kt de direction variable
Température 22°C
Humidité 69%
Pression 1017 hPa
Visibilité 10 km ou plus
Quelques nuages à une hauteur de 8000 ft

METAR: LIML 180450Z VRB01KT 9999 FEW080 22/16 Q1017 NOSIG

Heure: 07:02 (05:02 UTC)

Prévision

Le bulletin a été fait il y a 6 heures et 2 minutes, à 23:00 UTC
Prévision valable du 18 à 00 UTC au 18 à 24 UTC
Vent 5 kt de direction variable
Visibilité 10 km ou plus
pas de nuages en-dessous de 1500 mètres et pas de cumulonimbus.

TAF: LIML 172300Z 1800/1824 VRB05KT CAVOK

Observations et prévisions météorologiques de plus de 4000 aéroports (messages METAR et TAF).

Les stations disponibles sont représentées par des disques jaunes et rouges sur la carte.

Passer la souris dessus pour voir le nom de la station.

Cliquer dessus pour voir les observations et prévisions météorologiques.

Pour changer de carte: cliquez sur les boutons verts avec une croix noire pour zoomer, sur le bouton vert avec un tiret pour effectuer un zoom arrière, ou sur les flèches vertes pour les cartes adjacentes.


METAR-TAF: